sensor_id;sensor_type;location;lat;lon;timestamp;temperature;humidity
5808;DHT22;2930;42.678;23.312;2022-12-11T00:00:00;11.90;94.70
5808;DHT22;2930;42.678;23.312;2022-12-11T00:02:28;11.90;94.40
5808;DHT22;2930;42.678;23.312;2022-12-11T00:04:53;11.90;94.50
5808;DHT22;2930;42.678;23.312;2022-12-11T00:07:19;11.90;94.60
5808;DHT22;2930;42.678;23.312;2022-12-11T00:09:45;11.90;94.30
5808;DHT22;2930;42.678;23.312;2022-12-11T00:12:10;11.80;94.00
5808;DHT22;2930;42.678;23.312;2022-12-11T00:14:36;11.80;93.70
5808;DHT22;2930;42.678;23.312;2022-12-11T00:17:02;11.80;93.70
5808;DHT22;2930;42.678;23.312;2022-12-11T00:19:27;11.90;94.50
5808;DHT22;2930;42.678;23.312;2022-12-11T00:21:53;11.80;93.90
5808;DHT22;2930;42.678;23.312;2022-12-11T00:24:18;11.90;94.10
5808;DHT22;2930;42.678;23.312;2022-12-11T00:26:44;11.90;94.70
5808;DHT22;2930;42.678;23.312;2022-12-11T00:29:10;11.90;94.60
5808;DHT22;2930;42.678;23.312;2022-12-11T00:31:40;11.80;95.10
5808;DHT22;2930;42.678;23.312;2022-12-11T00:34:06;11.80;94.60
5808;DHT22;2930;42.678;23.312;2022-12-11T00:36:32;11.80;94.50
5808;DHT22;2930;42.678;23.312;2022-12-11T00:38:57;11.80;94.60
5808;DHT22;2930;42.678;23.312;2022-12-11T00:41:23;11.80;94.70
5808;DHT22;2930;42.678;23.312;2022-12-11T00:43:49;11.80;94.50
5808;DHT22;2930;42.678;23.312;2022-12-11T00:46:15;11.90;94.80
5808;DHT22;2930;42.678;23.312;2022-12-11T00:48:41;11.90;94.70
5808;DHT22;2930;42.678;23.312;2022-12-11T00:51:08;11.90;94.60
5808;DHT22;2930;42.678;23.312;2022-12-11T00:53:34;11.90;94.60
5808;DHT22;2930;42.678;23.312;2022-12-11T00:56:00;11.90;94.90
5808;DHT22;2930;42.678;23.312;2022-12-11T00:58:26;11.90;94.70
5808;DHT22;2930;42.678;23.312;2022-12-11T01:00:51;11.90;94.70
5808;DHT22;2930;42.678;23.312;2022-12-11T01:03:18;11.90;94.80
5808;DHT22;2930;42.678;23.312;2022-12-11T01:05:51;11.90;94.90
5808;DHT22;2930;42.678;23.312;2022-12-11T01:08:17;11.80;94.40
5808;DHT22;2930;42.678;23.312;2022-12-11T01:10:44;11.70;95.70
5808;DHT22;2930;42.678;23.312;2022-12-11T01:13:10;11.60;96.20
5808;DHT22;2930;42.678;23.312;2022-12-11T01:15:41;11.70;96.10
5808;DHT22;2930;42.678;23.312;2022-12-11T01:18:08;11.70;95.40
5808;DHT22;2930;42.678;23.312;2022-12-11T01:20:34;11.80;95.30
5808;DHT22;2930;42.678;23.312;2022-12-11T01:23:01;11.80;95.00
5808;DHT22;2930;42.678;23.312;2022-12-11T01:25:27;11.90;95.30
5808;DHT22;2930;42.678;23.312;2022-12-11T01:27:54;11.80;95.60
5808;DHT22;2930;42.678;23.312;2022-12-11T01:30:22;11.90;95.10
5808;DHT22;2930;42.678;23.312;2022-12-11T01:32:48;11.90;95.90
5808;DHT22;2930;42.678;23.312;2022-12-11T01:35:14;11.80;95.90
5808;DHT22;2930;42.678;23.312;2022-12-11T01:37:40;11.80;97.00
5808;DHT22;2930;42.678;23.312;2022-12-11T01:40:07;11.90;96.60
5808;DHT22;2930;42.678;23.312;2022-12-11T01:42:33;11.90;96.30
5808;DHT22;2930;42.678;23.312;2022-12-11T01:45:38;12.00;96.30
5808;DHT22;2930;42.678;23.312;2022-12-11T01:48:08;12.00;95.70
5808;DHT22;2930;42.678;23.312;2022-12-11T01:50:40;12.10;95.60
5808;DHT22;2930;42.678;23.312;2022-12-11T01:53:10;12.10;95.40
5808;DHT22;2930;42.678;23.312;2022-12-11T01:55:37;12.10;95.20
5808;DHT22;2930;42.678;23.312;2022-12-11T01:58:04;12.10;95.10
5808;DHT22;2930;42.678;23.312;2022-12-11T02:00:30;12.10;95.40
5808;DHT22;2930;42.678;23.312;2022-12-11T02:02:56;12.20;95.60
5808;DHT22;2930;42.678;23.312;2022-12-11T02:05:22;12.10;96.20
5808;DHT22;2930;42.678;23.312;2022-12-11T02:07:55;12.10;96.00
5808;DHT22;2930;42.678;23.312;2022-12-11T02:16:05;12.00;97.80
5808;DHT22;2930;42.678;23.312;2022-12-11T02:18:43;12.00;97.30
5808;DHT22;2930;42.678;23.312;2022-12-11T02:21:22;12.10;96.60
5808;DHT22;2930;42.678;23.312;2022-12-11T02:27:39;12.30;95.20
5808;DHT22;2930;42.678;23.312;2022-12-11T02:30:09;12.30;94.60
5808;DHT22;2930;42.678;23.312;2022-12-11T02:37:37;12.50;94.90
5808;DHT22;2930;42.678;23.312;2022-12-11T02:40:07;12.60;94.50
5808;DHT22;2930;42.678;23.312;2022-12-11T02:42:34;12.70;93.80
5808;DHT22;2930;42.678;23.312;2022-12-11T02:45:02;12.70;93.80
5808;DHT22;2930;42.678;23.312;2022-12-11T02:47:29;12.80;93.60
5808;DHT22;2930;42.678;23.312;2022-12-11T02:49:59;12.90;93.20
5808;DHT22;2930;42.678;23.312;2022-12-11T02:52:27;12.90;93.00
5808;DHT22;2930;42.678;23.312;2022-12-11T02:54:57;12.90;92.80
5808;DHT22;2930;42.678;23.312;2022-12-11T03:00:23;12.90;93.00
5808;DHT22;2930;42.678;23.312;2022-12-11T03:02:48;13.00;92.40
5808;DHT22;2930;42.678;23.312;2022-12-11T03:05:14;13.00;92.20
5808;DHT22;2930;42.678;23.312;2022-12-11T03:07:42;13.00;92.30
5808;DHT22;2930;42.678;23.312;2022-12-11T03:10:13;13.00;92.00
5808;DHT22;2930;42.678;23.312;2022-12-11T03:12:42;13.00;92.00
5808;DHT22;2930;42.678;23.312;2022-12-11T03:15:13;13.00;92.00
5808;DHT22;2930;42.678;23.312;2022-12-11T03:20:44;13.00;91.30
5808;DHT22;2930;42.678;23.312;2022-12-11T03:23:21;13.00;91.50
5808;DHT22;2930;42.678;23.312;2022-12-11T03:25:54;13.00;91.60
5808;DHT22;2930;42.678;23.312;2022-12-11T03:28:30;13.00;91.70
5808;DHT22;2930;42.678;23.312;2022-12-11T03:31:04;13.00;91.80
5808;DHT22;2930;42.678;23.312;2022-12-11T03:33:36;13.00;91.70
5808;DHT22;2930;42.678;23.312;2022-12-11T03:36:08;13.00;91.30
5808;DHT22;2930;42.678;23.312;2022-12-11T03:38:46;13.00;91.30
5808;DHT22;2930;42.678;23.312;2022-12-11T03:41:18;13.00;91.30
5808;DHT22;2930;42.678;23.312;2022-12-11T03:43:48;13.00;91.30
5808;DHT22;2930;42.678;23.312;2022-12-11T03:46:18;13.00;91.30
5808;DHT22;2930;42.678;23.312;2022-12-11T03:48:47;13.10;91.30
5808;DHT22;2930;42.678;23.312;2022-12-11T03:51:14;13.10;90.40
5808;DHT22;2930;42.678;23.312;2022-12-11T03:53:41;13.10;90.30
5808;DHT22;2930;42.678;23.312;2022-12-11T03:56:09;13.10;88.90
5808;DHT22;2930;42.678;23.312;2022-12-11T03:58:37;13.30;90.00
5808;DHT22;2930;42.678;23.312;2022-12-11T04:01:03;13.40;89.80
5808;DHT22;2930;42.678;23.312;2022-12-11T04:03:28;13.50;89.60
5808;DHT22;2930;42.678;23.312;2022-12-11T04:05:55;13.50;89.30
5808;DHT22;2930;42.678;23.312;2022-12-11T04:08:21;13.60;89.30
5808;DHT22;2930;42.678;23.312;2022-12-11T04:10:48;13.70;89.30
5808;DHT22;2930;42.678;23.312;2022-12-11T04:13:34;13.70;89.30
5808;DHT22;2930;42.678;23.312;2022-12-11T04:16:00;13.80;89.00
5808;DHT22;2930;42.678;23.312;2022-12-11T04:18:25;13.80;89.00
5808;DHT22;2930;42.678;23.312;2022-12-11T04:21:10;13.90;88.60
5808;DHT22;2930;42.678;23.312;2022-12-11T04:23:54;13.90;88.40
5808;DHT22;2930;42.678;23.312;2022-12-11T04:26:38;14.00;88.20
5808;DHT22;2930;42.678;23.312;2022-12-11T04:29:03;14.00;88.70
5808;DHT22;2930;42.678;23.312;2022-12-11T04:31:29;14.00;89.00
5808;DHT22;2930;42.678;23.312;2022-12-11T04:33:55;14.10;88.40
5808;DHT22;2930;42.678;23.312;2022-12-11T04:36:20;14.10;88.10
5808;DHT22;2930;42.678;23.312;2022-12-11T04:38:46;14.10;87.80
5808;DHT22;2930;42.678;23.312;2022-12-11T04:41:14;14.20;87.40
5808;DHT22;2930;42.678;23.312;2022-12-11T04:43:40;14.30;86.60
5808;DHT22;2930;42.678;23.312;2022-12-11T04:46:11;14.30;86.30
5808;DHT22;2930;42.678;23.312;2022-12-11T04:48:38;14.30;85.30
5808;DHT22;2930;42.678;23.312;2022-12-11T04:51:04;14.40;84.90
5808;DHT22;2930;42.678;23.312;2022-12-11T04:53:30;14.30;82.70
5808;DHT22;2930;42.678;23.312;2022-12-11T04:55:56;14.40;82.30
5808;DHT22;2930;42.678;23.312;2022-12-11T04:58:23;14.50;80.90
5808;DHT22;2930;42.678;23.312;2022-12-11T05:00:49;14.70;80.40
5808;DHT22;2930;42.678;23.312;2022-12-11T05:03:15;14.80;78.60
5808;DHT22;2930;42.678;23.312;2022-12-11T05:05:49;14.90;77.80
5808;DHT22;2930;42.678;23.312;2022-12-11T05:08:19;15.00;79.00
5808;DHT22;2930;42.678;23.312;2022-12-11T05:10:57;15.10;76.80
5808;DHT22;2930;42.678;23.312;2022-12-11T05:13:23;15.20;78.60
5808;DHT22;2930;42.678;23.312;2022-12-11T05:15:49;15.30;76.70
5808;DHT22;2930;42.678;23.312;2022-12-11T05:18:15;15.40;75.80
5808;DHT22;2930;42.678;23.312;2022-12-11T05:20:41;15.50;77.70
5808;DHT22;2930;42.678;23.312;2022-12-11T05:23:06;15.60;78.30
5808;DHT22;2930;42.678;23.312;2022-12-11T05:25:32;15.70;77.30
5808;DHT22;2930;42.678;23.312;2022-12-11T05:27:58;15.70;75.30
5808;DHT22;2930;42.678;23.312;2022-12-11T05:30:23;15.70;75.30
5808;DHT22;2930;42.678;23.312;2022-12-11T05:32:50;15.80;75.90
5808;DHT22;2930;42.678;23.312;2022-12-11T05:35:16;15.70;76.20
5808;DHT22;2930;42.678;23.312;2022-12-11T05:37:41;15.70;74.30
5808;DHT22;2930;42.678;23.312;2022-12-11T05:40:08;15.70;75.50
5808;DHT22;2930;42.678;23.312;2022-12-11T05:42:34;15.70;74.60
5808;DHT22;2930;42.678;23.312;2022-12-11T05:44:59;15.80;76.30
5808;DHT22;2930;42.678;23.312;2022-12-11T05:47:25;15.80;76.50
5808;DHT22;2930;42.678;23.312;2022-12-11T05:49:51;15.90;76.60
5808;DHT22;2930;42.678;23.312;2022-12-11T05:52:17;16.00;76.20
5808;DHT22;2930;42.678;23.312;2022-12-11T05:54:42;16.00;76.20
5808;DHT22;2930;42.678;23.312;2022-12-11T05:57:08;16.00;76.50
5808;DHT22;2930;42.678;23.312;2022-12-11T05:59:34;15.90;74.50
5808;DHT22;2930;42.678;23.312;2022-12-11T06:01:59;15.80;74.80
5808;DHT22;2930;42.678;23.312;2022-12-11T06:04:25;15.70;74.10
5808;DHT22;2930;42.678;23.312;2022-12-11T06:06:53;15.90;74.80
5808;DHT22;2930;42.678;23.312;2022-12-11T06:09:19;15.90;74.10
5808;DHT22;2930;42.678;23.312;2022-12-11T06:11:45;15.90;74.50
5808;DHT22;2930;42.678;23.312;2022-12-11T06:14:10;16.10;75.30
5808;DHT22;2930;42.678;23.312;2022-12-11T06:16:36;16.20;75.50
5808;DHT22;2930;42.678;23.312;2022-12-11T06:19:03;16.20;74.40
5808;DHT22;2930;42.678;23.312;2022-12-11T06:21:30;16.30;75.40
5808;DHT22;2930;42.678;23.312;2022-12-11T06:23:59;16.30;75.80
5808;DHT22;2930;42.678;23.312;2022-12-11T06:26:26;16.30;75.60
5808;DHT22;2930;42.678;23.312;2022-12-11T06:28:52;16.20;73.50
5808;DHT22;2930;42.678;23.312;2022-12-11T06:31:18;16.20;72.40
5808;DHT22;2930;42.678;23.312;2022-12-11T06:33:44;16.20;74.00
5808;DHT22;2930;42.678;23.312;2022-12-11T06:36:16;16.20;72.00
5808;DHT22;2930;42.678;23.312;2022-12-11T06:38:42;16.20;73.80
5808;DHT22;2930;42.678;23.312;2022-12-11T06:41:07;16.10;73.00
5808;DHT22;2930;42.678;23.312;2022-12-11T06:43:35;16.20;73.90
5808;DHT22;2930;42.678;23.312;2022-12-11T06:46:09;16.30;74.80
5808;DHT22;2930;42.678;23.312;2022-12-11T06:48:34;16.40;74.40
5808;DHT22;2930;42.678;23.312;2022-12-11T06:51:08;16.40;73.60
5808;DHT22;2930;42.678;23.312;2022-12-11T06:53:34;16.50;73.60
5808;DHT22;2930;42.678;23.312;2022-12-11T06:56:06;16.50;73.20
5808;DHT22;2930;42.678;23.312;2022-12-11T06:58:33;16.60;73.00
5808;DHT22;2930;42.678;23.312;2022-12-11T07:01:00;16.60;74.70
5808;DHT22;2930;42.678;23.312;2022-12-11T07:03:26;16.70;73.80
5808;DHT22;2930;42.678;23.312;2022-12-11T07:05:52;16.70;73.50
5808;DHT22;2930;42.678;23.312;2022-12-11T07:08:18;16.70;71.80
5808;DHT22;2930;42.678;23.312;2022-12-11T07:10:43;16.70;72.70
5808;DHT22;2930;42.678;23.312;2022-12-11T07:13:09;16.60;71.90
5808;DHT22;2930;42.678;23.312;2022-12-11T07:15:36;16.70;72.10
5808;DHT22;2930;42.678;23.312;2022-12-11T07:18:01;16.70;72.40
5808;DHT22;2930;42.678;23.312;2022-12-11T07:20:27;16.80;73.00
5808;DHT22;2930;42.678;23.312;2022-12-11T07:22:53;16.80;73.20
5808;DHT22;2930;42.678;23.312;2022-12-11T07:25:19;16.90;73.60
5808;DHT22;2930;42.678;23.312;2022-12-11T07:27:45;16.80;73.20
5808;DHT22;2930;42.678;23.312;2022-12-11T07:30:11;16.80;72.70
5808;DHT22;2930;42.678;23.312;2022-12-11T07:32:37;16.90;73.80
5808;DHT22;2930;42.678;23.312;2022-12-11T07:35:03;16.90;74.40
5808;DHT22;2930;42.678;23.312;2022-12-11T07:37:29;16.90;74.30
5808;DHT22;2930;42.678;23.312;2022-12-11T07:39:55;17.00;73.40
5808;DHT22;2930;42.678;23.312;2022-12-11T07:42:20;16.90;72.10
5808;DHT22;2930;42.678;23.312;2022-12-11T07:44:46;17.00;73.00
5808;DHT22;2930;42.678;23.312;2022-12-11T07:47:12;17.00;72.00
5808;DHT22;2930;42.678;23.312;2022-12-11T07:49:38;17.00;72.80
5808;DHT22;2930;42.678;23.312;2022-12-11T07:52:03;17.00;71.20
5808;DHT22;2930;42.678;23.312;2022-12-11T07:54:29;16.90;70.90
5808;DHT22;2930;42.678;23.312;2022-12-11T07:56:55;16.90;71.40
5808;DHT22;2930;42.678;23.312;2022-12-11T07:59:21;17.10;70.80
5808;DHT22;2930;42.678;23.312;2022-12-11T08:01:47;17.10;70.90
5808;DHT22;2930;42.678;23.312;2022-12-11T08:04:12;16.90;70.90
5808;DHT22;2930;42.678;23.312;2022-12-11T08:06:40;17.00;71.10
5808;DHT22;2930;42.678;23.312;2022-12-11T08:09:09;17.10;70.80
5808;DHT22;2930;42.678;23.312;2022-12-11T08:11:36;17.00;71.10
5808;DHT22;2930;42.678;23.312;2022-12-11T08:14:03;16.90;71.10
5808;DHT22;2930;42.678;23.312;2022-12-11T08:16:31;17.10;71.20
5808;DHT22;2930;42.678;23.312;2022-12-11T08:18:57;17.10;70.60
5808;DHT22;2930;42.678;23.312;2022-12-11T08:21:25;17.20;72.30
5808;DHT22;2930;42.678;23.312;2022-12-11T08:23:52;17.20;72.20
5808;DHT22;2930;42.678;23.312;2022-12-11T08:26:26;17.30;71.70
5808;DHT22;2930;42.678;23.312;2022-12-11T08:28:53;17.30;72.00
5808;DHT22;2930;42.678;23.312;2022-12-11T08:31:20;17.30;71.20
5808;DHT22;2930;42.678;23.312;2022-12-11T08:33:46;17.10;70.60
5808;DHT22;2930;42.678;23.312;2022-12-11T08:36:14;17.10;70.60
5808;DHT22;2930;42.678;23.312;2022-12-11T08:38:41;17.00;71.50
5808;DHT22;2930;42.678;23.312;2022-12-11T08:41:22;17.00;71.70
5808;DHT22;2930;42.678;23.312;2022-12-11T08:43:48;16.90;72.20
5808;DHT22;2930;42.678;23.312;2022-12-11T08:46:14;16.90;72.00
5808;DHT22;2930;42.678;23.312;2022-12-11T08:48:41;17.00;72.80
5808;DHT22;2930;42.678;23.312;2022-12-11T08:51:11;17.10;72.90
5808;DHT22;2930;42.678;23.312;2022-12-11T08:53:37;17.10;73.30
5808;DHT22;2930;42.678;23.312;2022-12-11T08:56:06;17.00;74.30
5808;DHT22;2930;42.678;23.312;2022-12-11T08:58:32;16.90;73.60
5808;DHT22;2930;42.678;23.312;2022-12-11T09:00:58;16.90;73.20
5808;DHT22;2930;42.678;23.312;2022-12-11T09:03:24;16.80;76.10
5808;DHT22;2930;42.678;23.312;2022-12-11T09:05:49;16.70;77.70
5808;DHT22;2930;42.678;23.312;2022-12-11T09:08:15;16.60;77.30
5808;DHT22;2930;42.678;23.312;2022-12-11T09:10:42;16.50;76.20
5808;DHT22;2930;42.678;23.312;2022-12-11T09:13:08;16.50;76.20
5808;DHT22;2930;42.678;23.312;2022-12-11T09:15:34;16.60;76.60
5808;DHT22;2930;42.678;23.312;2022-12-11T09:18:01;16.60;76.30
5808;DHT22;2930;42.678;23.312;2022-12-11T09:20:27;16.90;76.40
5808;DHT22;2930;42.678;23.312;2022-12-11T09:22:53;17.30;73.10
5808;DHT22;2930;42.678;23.312;2022-12-11T09:25:19;17.70;73.30
5808;DHT22;2930;42.678;23.312;2022-12-11T09:27:44;18.10;71.20
5808;DHT22;2930;42.678;23.312;2022-12-11T09:30:11;18.30;68.90
5808;DHT22;2930;42.678;23.312;2022-12-11T09:32:37;18.30;69.90
5808;DHT22;2930;42.678;23.312;2022-12-11T09:35:04;18.40;70.10
5808;DHT22;2930;42.678;23.312;2022-12-11T09:37:32;18.30;68.40
5808;DHT22;2930;42.678;23.312;2022-12-11T09:39:58;18.50;68.80
5808;DHT22;2930;42.678;23.312;2022-12-11T09:42:42;18.80;69.20
5808;DHT22;2930;42.678;23.312;2022-12-11T09:45:13;19.20;69.50
5808;DHT22;2930;42.678;23.312;2022-12-11T09:47:42;19.50;67.00
5808;DHT22;2930;42.678;23.312;2022-12-11T09:55:34;19.80;68.20
5808;DHT22;2930;42.678;23.312;2022-12-11T10:17:19;20.40;64.60
5808;DHT22;2930;42.678;23.312;2022-12-11T10:19:45;20.10;66.80
5808;DHT22;2930;42.678;23.312;2022-12-11T10:22:25;20.10;66.20
5808;DHT22;2930;42.678;23.312;2022-12-11T10:24:57;19.80;67.60
5808;DHT22;2930;42.678;23.312;2022-12-11T10:27:30;19.50;68.10
5808;DHT22;2930;42.678;23.312;2022-12-11T10:30:15;19.20;70.70
5808;DHT22;2930;42.678;23.312;2022-12-11T10:35:42;18.50;73.00
5808;DHT22;2930;42.678;23.312;2022-12-11T10:38:30;17.80;75.70
5808;DHT22;2930;42.678;23.312;2022-12-11T10:41:19;17.30;75.90
5808;DHT22;2930;42.678;23.312;2022-12-11T10:43:47;17.20;78.50
5808;DHT22;2930;42.678;23.312;2022-12-11T10:46:21;17.10;78.90
5808;DHT22;2930;42.678;23.312;2022-12-11T10:51:15;17.70;75.50
5808;DHT22;2930;42.678;23.312;2022-12-11T10:53:41;18.30;73.80
5808;DHT22;2930;42.678;23.312;2022-12-11T10:56:08;18.80;69.90
5808;DHT22;2930;42.678;23.312;2022-12-11T10:58:39;19.30;70.30
5808;DHT22;2930;42.678;23.312;2022-12-11T11:01:15;19.70;66.80
5808;DHT22;2930;42.678;23.312;2022-12-11T11:04:04;20.00;66.10
5808;DHT22;2930;42.678;23.312;2022-12-11T11:06:31;19.90;66.80
5808;DHT22;2930;42.678;23.312;2022-12-11T11:08:59;19.80;66.60
5808;DHT22;2930;42.678;23.312;2022-12-11T11:11:35;19.80;68.40
5808;DHT22;2930;42.678;23.312;2022-12-11T11:14:20;19.90;68.90
5808;DHT22;2930;42.678;23.312;2022-12-11T11:16:48;19.90;67.00
5808;DHT22;2930;42.678;23.312;2022-12-11T11:19:35;19.90;66.10
5808;DHT22;2930;42.678;23.312;2022-12-11T11:22:06;19.90;68.30
5808;DHT22;2930;42.678;23.312;2022-12-11T11:27:35;19.70;67.40
5808;DHT22;2930;42.678;23.312;2022-12-11T11:30:17;19.40;70.20
5808;DHT22;2930;42.678;23.312;2022-12-11T11:32:43;19.40;71.40
5808;DHT22;2930;42.678;23.312;2022-12-11T11:37:45;19.10;70.00
5808;DHT22;2930;42.678;23.312;2022-12-11T11:45:25;19.40;69.40
5808;DHT22;2930;42.678;23.312;2022-12-11T11:50:45;19.00;68.50
5808;DHT22;2930;42.678;23.312;2022-12-11T11:53:32;18.90;69.30
5808;DHT22;2930;42.678;23.312;2022-12-11T12:01:29;18.60;71.10
5808;DHT22;2930;42.678;23.312;2022-12-11T12:03:55;18.50;70.30
5808;DHT22;2930;42.678;23.312;2022-12-11T12:11:48;18.30;71.50
5808;DHT22;2930;42.678;23.312;2022-12-11T12:14:23;18.20;71.90
5808;DHT22;2930;42.678;23.312;2022-12-11T12:34:12;17.20;76.60
5808;DHT22;2930;42.678;23.312;2022-12-11T12:44:58;16.10;75.60
5808;DHT22;2930;42.678;23.312;2022-12-11T12:47:27;15.50;75.20
5808;DHT22;2930;42.678;23.312;2022-12-11T12:49:55;15.20;76.30
5808;DHT22;2930;42.678;23.312;2022-12-11T12:55:00;14.40;76.50
5808;DHT22;2930;42.678;23.312;2022-12-11T13:00:12;13.40;78.60
5808;DHT22;2930;42.678;23.312;2022-12-11T13:02:47;13.20;79.20
5808;DHT22;2930;42.678;23.312;2022-12-11T13:05:29;12.90;79.80
5808;DHT22;2930;42.678;23.312;2022-12-11T13:08:02;12.60;80.30
5808;DHT22;2930;42.678;23.312;2022-12-11T13:10:32;12.20;80.60
5808;DHT22;2930;42.678;23.312;2022-12-11T13:12:59;12.00;81.10
5808;DHT22;2930;42.678;23.312;2022-12-11T13:17:54;11.40;82.70
5808;DHT22;2930;42.678;23.312;2022-12-11T13:20:22;10.90;83.90
5808;DHT22;2930;42.678;23.312;2022-12-11T13:23:17;10.40;85.80
5808;DHT22;2930;42.678;23.312;2022-12-11T13:25:55;10.00;87.10
5808;DHT22;2930;42.678;23.312;2022-12-11T13:28:28;9.70;87.70
5808;DHT22;2930;42.678;23.312;2022-12-11T13:31:01;9.50;87.60
5808;DHT22;2930;42.678;23.312;2022-12-11T13:33:28;9.30;88.20
5808;DHT22;2930;42.678;23.312;2022-12-11T13:38:46;9.00;89.30
5808;DHT22;2930;42.678;23.312;2022-12-11T13:41:12;8.90;88.80
5808;DHT22;2930;42.678;23.312;2022-12-11T13:43:40;8.70;89.80
5808;DHT22;2930;42.678;23.312;2022-12-11T13:46:12;8.50;90.00
5808;DHT22;2930;42.678;23.312;2022-12-11T13:51:37;8.10;90.80
5808;DHT22;2930;42.678;23.312;2022-12-11T13:54:17;7.90;91.20
5808;DHT22;2930;42.678;23.312;2022-12-11T13:59:32;7.60;91.50
5808;DHT22;2930;42.678;23.312;2022-12-11T14:04:51;7.50;91.70
5808;DHT22;2930;42.678;23.312;2022-12-11T14:07:24;7.50;92.00
5808;DHT22;2930;42.678;23.312;2022-12-11T14:10:01;7.30;92.30
5808;DHT22;2930;42.678;23.312;2022-12-11T14:12:28;7.30;92.90
5808;DHT22;2930;42.678;23.312;2022-12-11T14:14:56;7.20;93.20
5808;DHT22;2930;42.678;23.312;2022-12-11T14:17:25;6.90;93.70
5808;DHT22;2930;42.678;23.312;2022-12-11T14:19:53;6.90;93.80
5808;DHT22;2930;42.678;23.312;2022-12-11T14:22:22;6.70;94.40
5808;DHT22;2930;42.678;23.312;2022-12-11T14:24:53;6.60;95.40
5808;DHT22;2930;42.678;23.312;2022-12-11T14:27:20;6.40;96.40
5808;DHT22;2930;42.678;23.312;2022-12-11T14:29:46;6.30;97.00
5808;DHT22;2930;42.678;23.312;2022-12-11T14:32:19;6.30;97.10
5808;DHT22;2930;42.678;23.312;2022-12-11T14:34:48;6.10;97.50
5808;DHT22;2930;42.678;23.312;2022-12-11T14:37:17;5.80;97.80
5808;DHT22;2930;42.678;23.312;2022-12-11T14:39:51;5.80;97.80
5808;DHT22;2930;42.678;23.312;2022-12-11T14:42:21;5.80;98.10
5808;DHT22;2930;42.678;23.312;2022-12-11T14:44:54;5.70;98.50
5808;DHT22;2930;42.678;23.312;2022-12-11T14:47:27;5.60;98.50
5808;DHT22;2930;42.678;23.312;2022-12-11T14:50:02;5.50;98.50
5808;DHT22;2930;42.678;23.312;2022-12-11T14:52:35;5.50;98.50
5808;DHT22;2930;42.678;23.312;2022-12-11T14:57:35;5.50;98.50
5808;DHT22;2930;42.678;23.312;2022-12-11T15:00:03;5.50;98.50
5808;DHT22;2930;42.678;23.312;2022-12-11T15:02:31;5.40;98.50
5808;DHT22;2930;42.678;23.312;2022-12-11T15:05:13;5.40;98.50
5808;DHT22;2930;42.678;23.312;2022-12-11T15:07:42;5.40;98.50
5808;DHT22;2930;42.678;23.312;2022-12-11T15:10:26;5.40;98.50
5808;DHT22;2930;42.678;23.312;2022-12-11T15:12:56;5.40;98.50
5808;DHT22;2930;42.678;23.312;2022-12-11T15:15:22;5.30;98.50
5808;DHT22;2930;42.678;23.312;2022-12-11T15:17:49;5.30;98.50
5808;DHT22;2930;42.678;23.312;2022-12-11T15:20:42;5.20;98.50
5808;DHT22;2930;42.678;23.312;2022-12-11T15:23:07;5.20;98.50
5808;DHT22;2930;42.678;23.312;2022-12-11T15:25:33;5.20;98.50
5808;DHT22;2930;42.678;23.312;2022-12-11T15:28:00;5.30;98.50
5808;DHT22;2930;42.678;23.312;2022-12-11T15:30:32;5.20;98.50
5808;DHT22;2930;42.678;23.312;2022-12-11T15:33:23;5.20;98.50
5808;DHT22;2930;42.678;23.312;2022-12-11T15:38:37;5.10;98.50
5808;DHT22;2930;42.678;23.312;2022-12-11T15:41:15;5.10;98.50
5808;DHT22;2930;42.678;23.312;2022-12-11T15:43:41;5.10;98.50
5808;DHT22;2930;42.678;23.312;2022-12-11T15:46:08;5.10;98.50
5808;DHT22;2930;42.678;23.312;2022-12-11T15:48:33;4.90;98.50
5808;DHT22;2930;42.678;23.312;2022-12-11T15:50:59;4.90;98.50
5808;DHT22;2930;42.678;23.312;2022-12-11T15:53:25;4.90;98.50
5808;DHT22;2930;42.678;23.312;2022-12-11T15:55:51;4.90;98.50
5808;DHT22;2930;42.678;23.312;2022-12-11T15:58:22;4.90;98.50
5808;DHT22;2930;42.678;23.312;2022-12-11T16:00:49;4.90;98.50
5808;DHT22;2930;42.678;23.312;2022-12-11T16:03:16;4.90;98.50
5808;DHT22;2930;42.678;23.312;2022-12-11T16:05:43;4.90;98.50
5808;DHT22;2930;42.678;23.312;2022-12-11T16:08:12;4.90;98.50
5808;DHT22;2930;42.678;23.312;2022-12-11T16:10:43;4.90;98.40
5808;DHT22;2930;42.678;23.312;2022-12-11T16:13:10;4.90;98.40
5808;DHT22;2930;42.678;23.312;2022-12-11T16:15:37;4.90;98.20
5808;DHT22;2930;42.678;23.312;2022-12-11T16:18:06;4.90;97.90
5808;DHT22;2930;42.678;23.312;2022-12-11T16:20:34;4.80;97.90
5808;DHT22;2930;42.678;23.312;2022-12-11T16:23:00;4.80;98.00
5808;DHT22;2930;42.678;23.312;2022-12-11T16:25:26;4.80;97.80
5808;DHT22;2930;42.678;23.312;2022-12-11T16:27:56;4.80;97.70
5808;DHT22;2930;42.678;23.312;2022-12-11T16:30:22;4.90;97.40
5808;DHT22;2930;42.678;23.312;2022-12-11T16:32:48;4.80;97.10
5808;DHT22;2930;42.678;23.312;2022-12-11T16:35:14;4.70;96.80
5808;DHT22;2930;42.678;23.312;2022-12-11T16:37:40;4.80;96.70
5808;DHT22;2930;42.678;23.312;2022-12-11T16:40:06;4.80;96.40
5808;DHT22;2930;42.678;23.312;2022-12-11T16:42:33;4.70;96.50
5808;DHT22;2930;42.678;23.312;2022-12-11T16:45:07;4.70;96.40
5808;DHT22;2930;42.678;23.312;2022-12-11T16:47:34;4.80;96.70
5808;DHT22;2930;42.678;23.312;2022-12-11T16:50:00;4.80;97.40
5808;DHT22;2930;42.678;23.312;2022-12-11T16:52:26;4.80;96.70
5808;DHT22;2930;42.678;23.312;2022-12-11T16:54:52;4.90;96.40
5808;DHT22;2930;42.678;23.312;2022-12-11T16:57:18;4.90;96.00
5808;DHT22;2930;42.678;23.312;2022-12-11T16:59:43;4.90;95.80
5808;DHT22;2930;42.678;23.312;2022-12-11T17:02:10;4.90;95.90
5808;DHT22;2930;42.678;23.312;2022-12-11T17:04:37;4.90;95.90
5808;DHT22;2930;42.678;23.312;2022-12-11T17:07:03;4.90;95.70
5808;DHT22;2930;42.678;23.312;2022-12-11T17:09:29;4.90;95.40
5808;DHT22;2930;42.678;23.312;2022-12-11T17:11:55;4.90;95.30
5808;DHT22;2930;42.678;23.312;2022-12-11T17:14:23;4.70;95.20
5808;DHT22;2930;42.678;23.312;2022-12-11T17:16:49;4.70;95.60
5808;DHT22;2930;42.678;23.312;2022-12-11T17:19:15;4.70;95.80
5808;DHT22;2930;42.678;23.312;2022-12-11T17:21:41;4.70;95.40
5808;DHT22;2930;42.678;23.312;2022-12-11T17:24:07;4.60;95.60
5808;DHT22;2930;42.678;23.312;2022-12-11T17:26:35;4.70;95.60
5808;DHT22;2930;42.678;23.312;2022-12-11T17:29:02;4.60;95.80
5808;DHT22;2930;42.678;23.312;2022-12-11T17:31:28;4.60;95.80
5808;DHT22;2930;42.678;23.312;2022-12-11T17:33:53;4.50;95.50
5808;DHT22;2930;42.678;23.312;2022-12-11T17:36:23;4.40;95.50
5808;DHT22;2930;42.678;23.312;2022-12-11T17:38:49;4.40;95.30
5808;DHT22;2930;42.678;23.312;2022-12-11T17:41:15;4.40;95.30
5808;DHT22;2930;42.678;23.312;2022-12-11T17:43:41;4.30;95.20
5808;DHT22;2930;42.678;23.312;2022-12-11T17:46:09;4.30;95.10
5808;DHT22;2930;42.678;23.312;2022-12-11T17:48:35;4.20;95.30
5808;DHT22;2930;42.678;23.312;2022-12-11T17:51:03;4.20;95.30
5808;DHT22;2930;42.678;23.312;2022-12-11T17:53:29;4.10;95.30
5808;DHT22;2930;42.678;23.312;2022-12-11T17:55:59;4.10;95.50
5808;DHT22;2930;42.678;23.312;2022-12-11T17:58:25;4.10;95.50
5808;DHT22;2930;42.678;23.312;2022-12-11T18:00:53;4.10;95.30
5808;DHT22;2930;42.678;23.312;2022-12-11T18:03:20;4.00;95.30